createdAt,value
2022-12-27T00:02:25.494Z,4.73
2022-12-27T00:04:54.731Z,4.27
2022-12-27T00:07:25.117Z,4.03
2022-12-27T00:09:55.756Z,4.20
2022-12-27T00:12:25.081Z,4.13
2022-12-27T00:14:53.557Z,4.00
2022-12-27T00:17:22.234Z,3.73
2022-12-27T00:19:54.114Z,3.60
2022-12-27T00:22:23.892Z,4.03
2022-12-27T00:24:55.439Z,3.10
2022-12-27T00:27:24.088Z,3.47
2022-12-27T00:29:52.637Z,3.83
2022-12-27T00:32:23.054Z,3.53
2022-12-27T00:34:51.346Z,3.20
2022-12-27T00:37:19.924Z,3.70
2022-12-27T00:39:49.767Z,3.80
2022-12-27T00:42:18.206Z,3.90
2022-12-27T00:44:46.542Z,3.37
2022-12-27T00:47:14.974Z,3.60
2022-12-27T00:49:43.835Z,3.50
2022-12-27T00:52:12.568Z,3.90
2022-12-27T00:54:41.377Z,4.13
2022-12-27T00:57:11.182Z,4.37
2022-12-27T00:59:39.923Z,4.30
2022-12-27T01:02:08.579Z,4.00
2022-12-27T01:04:37.031Z,4.10
2022-12-27T01:07:05.827Z,4.63
2022-12-27T01:09:34.411Z,4.60
2022-12-27T01:12:02.892Z,4.70
2022-12-27T01:14:33.182Z,4.60
2022-12-27T01:17:01.865Z,4.33
2022-12-27T01:19:30.473Z,4.50
2022-12-27T01:21:59.286Z,4.50
2022-12-27T01:24:27.855Z,5.17
2022-12-27T01:26:56.157Z,4.87
2022-12-27T01:29:24.602Z,4.80
2022-12-27T01:31:54.678Z,4.37
2022-12-27T01:34:26.218Z,4.13
2022-12-27T01:36:54.730Z,3.83
2022-12-27T01:39:23.443Z,4.10
2022-12-27T01:42:09.676Z,3.40
2022-12-27T01:44:54.700Z,3.10
2022-12-27T01:47:30.913Z,2.80
2022-12-27T01:50:07.284Z,2.97
2022-12-27T01:52:43.281Z,3.10
2022-12-27T01:55:20.801Z,2.70
2022-12-27T01:57:53.559Z,2.50
2022-12-27T02:00:22.266Z,2.43
2022-12-27T02:02:55.601Z,2.60
2022-12-27T02:05:26.294Z,2.63
2022-12-27T02:08:17.848Z,2.33
2022-12-27T02:10:46.992Z,2.70
2022-12-27T02:13:16.588Z,2.47
2022-12-27T02:15:45.007Z,2.10
2022-12-27T02:18:15.384Z,2.50
2022-12-27T02:21:08.765Z,2.43
2022-12-27T02:24:04.863Z,2.40
2022-12-27T02:26:55.886Z,2.30
2022-12-27T02:29:44.930Z,2.23
2022-12-27T02:32:18.367Z,2.17
2022-12-27T02:34:55.341Z,2.53
2022-12-27T02:37:28.002Z,2.50
2022-12-27T02:40:18.361Z,2.10
2022-12-27T02:43:05.383Z,2.40
2022-12-27T02:46:07.736Z,2.40
2022-12-27T02:48:53.822Z,2.40
2022-12-27T02:51:52.328Z,2.53
2022-12-27T02:54:36.880Z,2.30
2022-12-27T02:57:16.890Z,2.13
2022-12-27T03:00:23.559Z,2.50
2022-12-27T03:03:24.323Z,2.20
2022-12-27T03:06:41.651Z,2.33
2022-12-27T03:09:57.732Z,2.50
2022-12-27T03:12:58.521Z,2.03
2022-12-27T03:15:58.838Z,2.00
2022-12-27T03:18:38.998Z,2.17
2022-12-27T03:21:27.151Z,2.10
2022-12-27T03:24:15.245Z,2.07
2022-12-27T03:26:48.290Z,2.30
2022-12-27T03:29:38.020Z,2.20
2022-12-27T03:32:27.952Z,2.70
2022-12-27T03:35:02.628Z,2.00
2022-12-27T03:37:52.938Z,2.37
2022-12-27T03:40:28.680Z,2.67
2022-12-27T03:43:11.387Z,2.60
2022-12-27T03:46:14.488Z,2.43
2022-12-27T03:48:55.296Z,2.40
2022-12-27T03:51:27.885Z,2.37
2022-12-27T03:54:03.655Z,2.40
2022-12-27T03:56:32.774Z,2.50
2022-12-27T03:59:03.701Z,2.40
2022-12-27T04:01:32.717Z,2.40
2022-12-27T04:04:01.369Z,2.40
2022-12-27T04:06:31.279Z,2.27
2022-12-27T04:09:17.962Z,1.77
2022-12-27T04:12:03.566Z,2.03
2022-12-27T04:14:49.690Z,1.90
2022-12-27T04:17:35.781Z,2.00
2022-12-27T04:20:21.778Z,1.93
2022-12-27T04:23:09.135Z,1.60
2022-12-27T04:25:55.007Z,1.40
2022-12-27T04:28:41.131Z,1.73
2022-12-27T04:31:28.321Z,1.70
2022-12-27T04:34:14.097Z,2.50
2022-12-27T04:36:44.406Z,3.17
2022-12-27T04:39:14.529Z,3.10
2022-12-27T04:42:00.911Z,2.90
2022-12-27T04:44:58.249Z,2.33
2022-12-27T04:47:44.561Z,2.50
2022-12-27T04:50:45.976Z,2.10
2022-12-27T04:53:34.550Z,1.70
2022-12-27T04:56:05.157Z,2.03
2022-12-27T04:58:34.134Z,1.87
2022-12-27T05:01:22.816Z,1.87
2022-12-27T05:03:54.631Z,1.80
2022-12-27T05:06:23.272Z,1.80
2022-12-27T05:09:23.250Z,1.33
2022-12-27T05:12:16.091Z,1.60
2022-12-27T05:14:44.457Z,1.33
2022-12-27T05:17:13.118Z,1.80
2022-12-27T05:19:41.357Z,1.40
2022-12-27T05:22:27.747Z,1.93
2022-12-27T05:25:13.717Z,1.77
2022-12-27T05:27:43.686Z,1.67
2022-12-27T05:30:13.107Z,1.70
2022-12-27T05:32:41.677Z,1.63
2022-12-27T05:35:10.451Z,1.87
2022-12-27T05:37:38.735Z,1.73
2022-12-27T05:40:08.700Z,1.40
2022-12-27T05:42:36.987Z,1.70
2022-12-27T05:45:08.522Z,1.47
2022-12-27T05:47:36.954Z,1.40
2022-12-27T05:50:05.990Z,1.70
2022-12-27T05:52:40.637Z,1.63
2022-12-27T05:55:10.162Z,1.50
2022-12-27T05:57:38.503Z,1.30
2022-12-27T06:00:09.672Z,1.90
2022-12-27T06:02:39.543Z,1.20
2022-12-27T06:05:10.111Z,1.57
2022-12-27T06:07:39.364Z,1.60
2022-12-27T06:10:09.915Z,1.50
2022-12-27T06:12:38.580Z,1.50
2022-12-27T06:15:09.867Z,1.20
2022-12-27T06:17:38.195Z,1.70
2022-12-27T06:20:07.907Z,1.70
2022-12-27T06:22:36.274Z,1.53
2022-12-27T06:25:06.396Z,1.47
2022-12-27T06:27:36.344Z,1.87
2022-12-27T06:30:05.428Z,1.87
2022-12-27T06:32:35.611Z,2.00
2022-12-27T06:35:04.349Z,1.40
2022-12-27T06:37:32.835Z,1.70
2022-12-27T06:40:01.587Z,1.80
2022-12-27T06:42:31.157Z,1.80
2022-12-27T06:44:59.863Z,1.47
2022-12-27T06:47:28.224Z,1.57
2022-12-27T06:49:58.052Z,1.77
2022-12-27T06:52:26.524Z,1.57
2022-12-27T06:54:55.203Z,2.00
2022-12-27T06:57:23.533Z,10.53
2022-12-27T06:59:54.170Z,18.23
2022-12-27T07:02:22.960Z,7.60
2022-12-27T07:04:51.382Z,3.97
2022-12-27T07:07:21.136Z,5.67
2022-12-27T07:09:49.859Z,4.30
2022-12-27T07:12:18.570Z,3.03
2022-12-27T07:14:47.032Z,2.90
2022-12-27T07:17:15.494Z,2.80
2022-12-27T07:19:44.152Z,2.30
2022-12-27T07:22:12.521Z,2.47
2022-12-27T07:24:42.508Z,2.10
2022-12-27T07:27:11.108Z,2.40
2022-12-27T07:29:45.256Z,2.10
2022-12-27T07:32:14.265Z,2.20
2022-12-27T07:34:42.994Z,2.23
2022-12-27T07:37:11.383Z,2.43
2022-12-27T07:39:39.969Z,2.43
2022-12-27T07:42:09.716Z,2.47
2022-12-27T07:44:38.569Z,2.33
2022-12-27T07:47:07.068Z,2.80
2022-12-27T07:49:35.601Z,2.50
2022-12-27T07:52:03.908Z,2.90
2022-12-27T07:54:32.353Z,2.37
2022-12-27T07:57:00.759Z,2.47
2022-12-27T07:59:30.483Z,2.70
2022-12-27T08:02:05.044Z,2.60
2022-12-27T08:04:37.338Z,2.30
2022-12-27T08:07:07.626Z,2.00
2022-12-27T08:09:39.744Z,2.53
2022-12-27T08:12:08.905Z,2.17
2022-12-27T08:14:38.723Z,2.40
2022-12-27T08:17:12.562Z,2.10
2022-12-27T08:19:41.502Z,2.13
2022-12-27T08:22:11.023Z,1.80
2022-12-27T08:24:41.140Z,2.10
2022-12-27T08:27:09.996Z,2.03
2022-12-27T08:29:40.005Z,2.20
2022-12-27T08:32:08.806Z,2.10
2022-12-27T08:34:37.169Z,2.00
2022-12-27T08:37:05.560Z,2.10
2022-12-27T08:39:33.803Z,2.50
2022-12-27T08:42:02.801Z,2.17
2022-12-27T08:44:31.221Z,2.47
2022-12-27T08:47:01.032Z,2.60
2022-12-27T08:49:29.422Z,2.93
2022-12-27T08:51:58.256Z,3.40
2022-12-27T08:54:26.982Z,3.67
2022-12-27T08:56:55.888Z,2.73
2022-12-27T08:59:24.242Z,3.03
2022-12-27T09:01:53.011Z,2.77
2022-12-27T09:04:23.511Z,2.67
2022-12-27T09:06:52.596Z,2.93
2022-12-27T09:09:21.169Z,2.37
2022-12-27T09:11:50.381Z,2.10
2022-12-27T09:14:19.083Z,2.57
2022-12-27T09:16:47.768Z,3.07
2022-12-27T09:19:16.135Z,2.40
2022-12-27T09:21:46.598Z,3.13
2022-12-27T09:24:15.534Z,2.80
2022-12-27T09:26:44.045Z,3.10
2022-12-27T09:29:13.225Z,2.60
2022-12-27T09:31:41.629Z,2.53
2022-12-27T09:34:11.397Z,2.40
2022-12-27T09:36:41.624Z,1.83
2022-12-27T09:39:13.969Z,2.17
2022-12-27T09:44:51.057Z,2.30
2022-12-27T09:47:25.052Z,1.80
2022-12-27T09:49:58.086Z,1.80
2022-12-27T09:52:30.966Z,2.00
2022-12-27T09:55:06.667Z,1.90
2022-12-27T09:57:39.079Z,1.63
2022-12-27T10:00:16.471Z,1.83
2022-12-27T10:02:45.953Z,1.90
2022-12-27T10:05:22.568Z,2.00
2022-12-27T10:08:04.511Z,1.90
2022-12-27T10:10:43.379Z,1.90
2022-12-27T10:13:24.991Z,1.50
2022-12-27T10:16:03.483Z,1.47
2022-12-27T10:18:44.102Z,1.80
2022-12-27T10:21:21.327Z,1.77
2022-12-27T10:23:55.558Z,1.30
2022-12-27T10:26:25.833Z,1.73
2022-12-27T10:28:58.633Z,1.27
2022-12-27T10:31:27.797Z,1.07
2022-12-27T10:33:58.066Z,1.50
2022-12-27T10:36:28.328Z,1.30
2022-12-27T10:38:56.949Z,1.90
2022-12-27T10:41:39.364Z,1.70
2022-12-27T10:44:12.065Z,1.40
2022-12-27T10:46:44.643Z,1.80
2022-12-27T10:49:25.739Z,1.70
2022-12-27T10:51:56.925Z,1.40
2022-12-27T10:54:27.546Z,1.57
2022-12-27T10:57:18.650Z,1.40
2022-12-27T10:59:47.085Z,1.07
2022-12-27T11:02:19.292Z,1.60
2022-12-27T11:05:01.357Z,2.50
2022-12-27T11:07:32.202Z,2.40
2022-12-27T11:10:17.229Z,1.63
2022-12-27T11:13:02.929Z,1.50
2022-12-27T11:15:34.833Z,2.23
2022-12-27T11:18:10.254Z,2.27
2022-12-27T11:20:40.647Z,1.80
2022-12-27T11:23:16.552Z,1.87
2022-12-27T11:25:53.467Z,2.17
2022-12-27T11:28:30.145Z,1.30
2022-12-27T11:31:04.048Z,1.50
2022-12-27T11:33:37.616Z,1.70
2022-12-27T11:36:08.398Z,5.57
2022-12-27T11:38:39.388Z,2.60
2022-12-27T11:41:12.134Z,2.20
2022-12-27T11:43:49.713Z,1.67
2022-12-27T11:46:28.536Z,1.60
2022-12-27T11:48:59.025Z,1.43
2022-12-27T11:51:48.172Z,1.43
2022-12-27T11:54:57.925Z,1.50
2022-12-27T11:57:39.703Z,1.47
2022-12-27T12:00:17.184Z,1.67
2022-12-27T12:03:14.473Z,2.00
2022-12-27T12:05:59.910Z,1.67
2022-12-27T12:08:45.958Z,1.97
2022-12-27T12:11:28.969Z,1.83
2022-12-27T12:14:37.229Z,1.97
2022-12-27T12:17:36.266Z,1.57
2022-12-27T12:20:17.175Z,1.67
2022-12-27T12:23:03.263Z,2.60
2022-12-27T12:25:53.315Z,2.53
2022-12-27T12:28:59.116Z,3.07
2022-12-27T12:31:51.634Z,3.03
2022-12-27T12:34:43.065Z,2.50
2022-12-27T12:37:27.554Z,2.33
2022-12-27T12:40:12.509Z,2.50
2022-12-27T12:42:50.874Z,1.77
2022-12-27T12:45:42.542Z,1.60
2022-12-27T12:48:36.078Z,2.63
2022-12-27T12:51:27.424Z,1.30
2022-12-27T12:54:08.536Z,1.23
2022-12-27T12:56:57.061Z,1.60
2022-12-27T12:59:39.324Z,1.30
2022-12-27T13:02:32.444Z,1.60
2022-12-27T13:05:13.838Z,1.77
2022-12-27T13:07:57.549Z,2.03
2022-12-27T13:10:45.305Z,1.40
2022-12-27T13:13:20.225Z,1.30
2022-12-27T13:15:59.790Z,1.40
2022-12-27T13:18:40.012Z,1.37
2022-12-27T13:21:17.645Z,1.40
2022-12-27T13:24:04.402Z,1.10
2022-12-27T13:26:43.989Z,1.37
2022-12-27T13:29:41.336Z,1.60
2022-12-27T13:32:19.723Z,1.80
2022-12-27T13:35:01.393Z,1.57
2022-12-27T13:37:43.113Z,1.60
2022-12-27T13:40:35.933Z,1.60
2022-12-27T13:43:35.981Z,2.40
2022-12-27T13:46:48.363Z,2.87
2022-12-27T13:49:30.964Z,2.57
2022-12-27T13:52:09.076Z,2.80
2022-12-27T13:55:14.827Z,3.13
2022-12-27T13:58:27.493Z,6.30
2022-12-27T14:01:07.068Z,4.27
2022-12-27T14:03:55.999Z,3.73
2022-12-27T14:06:44.511Z,3.27
2022-12-27T14:09:37.918Z,3.20
2022-12-27T14:12:36.583Z,3.00
2022-12-27T14:15:09.347Z,2.10
2022-12-27T14:17:45.300Z,2.13
2022-12-27T14:20:38.041Z,1.67
2022-12-27T14:23:32.139Z,1.90
2022-12-27T14:26:42.872Z,2.00
2022-12-27T14:29:53.952Z,1.70
2022-12-27T14:33:04.767Z,1.40
2022-12-27T14:36:11.150Z,1.33
2022-12-27T14:39:13.243Z,1.30
2022-12-27T14:42:05.521Z,1.37
2022-12-27T14:45:10.890Z,1.80
2022-12-27T14:48:05.793Z,1.47
2022-12-27T14:51:49.980Z,1.67
2022-12-27T14:54:21.363Z,1.80
2022-12-27T14:56:59.380Z,1.30
2022-12-27T14:59:42.457Z,1.50
2022-12-27T15:02:29.989Z,1.60
2022-12-27T15:05:12.613Z,4.93
2022-12-27T15:08:07.127Z,3.80
2022-12-27T15:10:58.140Z,4.67
2022-12-27T15:13:40.345Z,5.10
2022-12-27T15:16:16.824Z,11.80
2022-12-27T15:19:01.678Z,10.03
2022-12-27T15:21:59.817Z,6.03
2022-12-27T15:24:42.833Z,7.63
2022-12-27T15:27:20.290Z,10.27
2022-12-27T15:30:09.050Z,11.43
2022-12-27T15:32:51.321Z,8.90
2022-12-27T15:35:50.675Z,7.10
2022-12-27T15:38:39.693Z,6.73
2022-12-27T15:41:23.377Z,7.27
2022-12-27T15:44:26.927Z,5.37
2022-12-27T15:47:13.567Z,7.30
2022-12-27T15:50:07.482Z,7.37
2022-12-27T15:52:53.190Z,6.50
2022-12-27T15:55:39.949Z,9.80
2022-12-27T15:58:16.346Z,7.37
2022-12-27T16:01:07.357Z,5.87
2022-12-27T16:03:38.461Z,5.30
2022-12-27T16:06:08.864Z,5.73
2022-12-27T16:08:39.689Z,5.30
2022-12-27T16:11:14.784Z,4.97
2022-12-27T16:13:48.730Z,4.17
2022-12-27T16:16:56.868Z,4.20
2022-12-27T16:20:01.625Z,4.50
2022-12-27T16:22:37.629Z,6.27
2022-12-27T16:25:30.675Z,5.60
2022-12-27T16:28:08.485Z,5.23
2022-12-27T16:30:45.003Z,4.33
2022-12-27T16:33:31.355Z,4.07
2022-12-27T16:36:24.464Z,4.60
2022-12-27T16:39:21.578Z,4.33
2022-12-27T16:42:05.076Z,3.80
2022-12-27T16:44:55.475Z,2.97
2022-12-27T16:47:45.059Z,3.30
2022-12-27T16:50:29.722Z,2.70
2022-12-27T16:53:18.605Z,2.87
2022-12-27T16:56:17.153Z,2.60
2022-12-27T16:58:46.334Z,2.70
2022-12-27T17:02:03.719Z,2.37
2022-12-27T17:05:00.606Z,2.30
2022-12-27T17:08:02.005Z,3.13
2022-12-27T17:10:54.885Z,3.43
2022-12-27T17:13:37.948Z,3.43
2022-12-27T17:16:09.898Z,2.83
2022-12-27T17:18:47.768Z,2.60
2022-12-27T17:21:29.440Z,2.80
2022-12-27T17:24:01.102Z,3.37
2022-12-27T17:26:56.335Z,3.03
2022-12-27T17:29:46.828Z,3.93
2022-12-27T17:32:28.324Z,3.90
2022-12-27T17:35:09.433Z,4.00
2022-12-27T17:37:44.995Z,4.27
2022-12-27T17:40:27.718Z,4.50
2022-12-27T17:43:25.657Z,3.93
2022-12-27T17:46:08.431Z,3.50
2022-12-27T17:48:38.352Z,3.40
2022-12-27T17:51:13.345Z,3.20
2022-12-27T17:54:04.657Z,3.33
2022-12-27T17:57:02.112Z,3.50
2022-12-27T17:59:32.482Z,3.80
2022-12-27T18:02:05.523Z,2.63
2022-12-27T18:04:37.325Z,3.20
2022-12-27T18:07:09.147Z,2.83
2022-12-27T18:09:41.385Z,3.50
2022-12-27T18:12:18.765Z,3.33
2022-12-27T18:14:55.309Z,3.13
2022-12-27T18:17:29.263Z,3.00
2022-12-27T18:19:57.993Z,3.03
2022-12-27T18:22:28.727Z,3.27
2022-12-27T18:24:57.337Z,3.90
2022-12-27T18:27:27.104Z,3.47
2022-12-27T18:29:55.628Z,3.23
2022-12-27T18:32:25.867Z,4.30
2022-12-27T18:34:57.536Z,3.70
2022-12-27T18:37:28.197Z,4.70
2022-12-27T18:40:00.335Z,3.80
2022-12-27T18:42:34.515Z,4.13
2022-12-27T18:45:06.228Z,3.73
2022-12-27T18:47:40.661Z,4.20
2022-12-27T18:50:17.817Z,4.57
2022-12-27T18:52:53.128Z,4.57
2022-12-27T18:55:26.815Z,3.80
2022-12-27T18:58:04.784Z,4.27
2022-12-27T19:00:33.565Z,4.10
2022-12-27T19:03:15.122Z,4.37
2022-12-27T19:05:59.601Z,4.67
2022-12-27T19:08:34.882Z,3.67
2022-12-27T19:11:04.363Z,3.90
2022-12-27T19:13:42.707Z,4.63
2022-12-27T19:16:23.284Z,4.10
2022-12-27T19:18:54.624Z,4.03
2022-12-27T19:21:32.926Z,4.13
2022-12-27T19:24:31.843Z,3.90
2022-12-27T19:27:03.113Z,3.50
2022-12-27T19:29:40.915Z,4.60
2022-12-27T19:32:11.472Z,4.30
2022-12-27T19:34:46.840Z,3.60
2022-12-27T19:37:18.666Z,3.77
2022-12-27T19:39:49.452Z,3.87
2022-12-27T19:42:24.751Z,3.30
2022-12-27T19:44:53.472Z,3.90
2022-12-27T19:47:22.343Z,4.17
2022-12-27T19:49:51.213Z,3.67
2022-12-27T19:52:21.807Z,3.60
2022-12-27T19:54:57.914Z,3.53
2022-12-27T19:57:26.174Z,3.80
2022-12-27T19:59:54.475Z,3.60
2022-12-27T20:02:23.429Z,3.40
2022-12-27T20:04:52.243Z,3.70
2022-12-27T20:07:24.134Z,3.30
2022-12-27T20:09:54.414Z,3.70
2022-12-27T20:12:22.920Z,3.20
2022-12-27T20:14:51.370Z,3.80
2022-12-27T20:17:20.275Z,4.90
2022-12-27T20:19:49.018Z,4.47
2022-12-27T20:22:17.650Z,3.93
2022-12-27T20:24:47.219Z,4.20
2022-12-27T20:27:17.033Z,3.73
2022-12-27T20:29:45.411Z,4.20
2022-12-27T20:32:13.689Z,3.80
2022-12-27T20:34:42.040Z,3.60
2022-12-27T20:37:10.809Z,3.50
2022-12-27T20:39:39.317Z,3.47
2022-12-27T20:42:07.772Z,3.33
2022-12-27T20:44:40.199Z,3.70
2022-12-27T20:47:08.693Z,3.70
2022-12-27T20:49:37.533Z,4.70
2022-12-27T20:52:06.249Z,4.27
2022-12-27T20:54:34.763Z,3.90
2022-12-27T20:57:03.249Z,4.10
2022-12-27T20:59:32.534Z,4.60
2022-12-27T21:02:02.365Z,3.57
2022-12-27T21:04:30.972Z,3.80
2022-12-27T21:06:59.667Z,4.00
2022-12-27T21:09:28.201Z,3.40
2022-12-27T21:11:57.056Z,3.50
2022-12-27T21:14:25.557Z,3.53
2022-12-27T21:16:54.239Z,3.60
2022-12-27T21:19:24.153Z,3.50
2022-12-27T21:21:52.656Z,3.40
2022-12-27T21:24:21.171Z,3.87
2022-12-27T21:26:56.033Z,3.30
2022-12-27T21:29:25.644Z,3.10
2022-12-27T21:31:54.515Z,3.03
2022-12-27T21:34:24.760Z,3.33
2022-12-27T21:36:55.513Z,3.40
2022-12-27T21:39:23.847Z,3.40
2022-12-27T21:41:52.447Z,3.40
2022-12-27T21:44:25.140Z,3.10
2022-12-27T21:46:54.403Z,3.80
2022-12-27T21:49:24.030Z,3.90
2022-12-27T21:51:52.543Z,3.30
2022-12-27T21:54:21.569Z,2.83
2022-12-27T21:56:50.955Z,2.90
2022-12-27T21:59:19.237Z,3.20
2022-12-27T22:01:50.288Z,3.23
2022-12-27T22:04:21.450Z,3.17
2022-12-27T22:06:51.615Z,2.77
2022-12-27T22:09:20.195Z,3.13
2022-12-27T22:11:50.930Z,2.80
2022-12-27T22:14:24.921Z,2.87
2022-12-27T22:16:54.013Z,2.70
2022-12-27T22:19:22.493Z,3.00
2022-12-27T22:21:52.394Z,2.60
2022-12-27T22:24:20.884Z,3.10
2022-12-27T22:26:50.643Z,2.80
2022-12-27T22:29:19.597Z,3.50
2022-12-27T22:31:48.193Z,2.90
2022-12-27T22:34:16.748Z,2.77
2022-12-27T22:36:45.159Z,3.40
2022-12-27T22:39:14.966Z,2.73
2022-12-27T22:41:43.919Z,2.73
2022-12-27T22:44:13.884Z,2.43
2022-12-27T22:47:25.215Z,2.80
2022-12-27T22:49:32.191Z,2.40
2022-12-27T22:52:00.475Z,2.43
2022-12-27T22:55:03.034Z,2.40
2022-12-27T22:57:18.999Z,2.47
2022-12-27T22:59:47.516Z,2.50
2022-12-27T23:02:16.656Z,2.70
2022-12-27T23:04:45.130Z,2.60
2022-12-27T23:07:13.324Z,2.57
2022-12-27T23:09:43.847Z,2.63
2022-12-27T23:12:12.783Z,2.80
2022-12-27T23:14:41.677Z,2.80
2022-12-27T23:17:10.359Z,2.67
2022-12-27T23:19:38.804Z,2.80
2022-12-27T23:22:07.430Z,2.50
2022-12-27T23:24:35.768Z,2.83
2022-12-27T23:27:05.630Z,2.53
2022-12-27T23:29:34.130Z,2.77
2022-12-27T23:32:02.604Z,2.70
2022-12-27T23:34:54.963Z,2.47
2022-12-27T23:37:23.450Z,2.67
2022-12-27T23:39:52.150Z,2.23
2022-12-27T23:42:21.984Z,2.33
2022-12-27T23:44:50.613Z,2.43
2022-12-27T23:47:19.181Z,2.47
2022-12-27T23:49:47.590Z,2.43
2022-12-27T23:52:16.784Z,2.70
2022-12-27T23:54:45.163Z,2.13
2022-12-27T23:57:19.930Z,2.20
2022-12-27T23:59:51.634Z,2.40
